Time;durP1;ratioP1;P1;durP2;ratioP2;P2;SDS_P1;SDS_P2;PMS_P1;PMS_P2;Temp;Humidity;BMP_temperature;BMP_pressure;BME280_temperature;BME280_humidity;BME280_pressure;Samples;Min_cycle;Max_cycle;Signal;HPM_P1;HPM_P2
2023/12/05 00:01:32;;;;;;;25.38;16.50;;;;;;;;;;4995448;28;20514;-75
2023/12/05 00:03:58;;;;;;;24.17;16.85;;;;;;;;;;4993079;28;20102;-75
2023/12/05 00:06:24;;;;;;;22.65;15.20;;;;;;;;;;4993416;28;20043;-75
2023/12/05 00:08:50;;;;;;;23.55;16.35;;;;;;;;;;5010696;28;20057;-75
2023/12/05 00:11:16;;;;;;;24.98;17.80;;;;;;;;;;5008369;28;20043;-75
2023/12/05 00:13:43;;;;;;;26.45;17.45;;;;;;;;;;5008913;28;20412;-75
2023/12/05 00:16:09;;;;;;;26.90;18.52;;;;;;;;;;5011116;28;20057;-75
2023/12/05 00:18:36;;;;;;;25.02;17.88;;;;;;;;;;4994356;28;20049;-75
2023/12/05 00:21:03;;;;;;;26.25;17.23;;;;;;;;;;4998889;28;20050;-75
2023/12/05 00:23:29;;;;;;;24.33;17.23;;;;;;;;;;5011251;28;20042;-75
2023/12/05 00:25:55;;;;;;;25.10;17.70;;;;;;;;;;5000155;28;20054;-75
2023/12/05 00:28:21;;;;;;;23.63;17.38;;;;;;;;;;5006269;28;20054;-75
2023/12/05 00:30:47;;;;;;;25.63;18.08;;;;;;;;;;5000475;28;20046;-75
2023/12/05 00:33:13;;;;;;;25.80;16.98;;;;;;;;;;5005337;28;20505;-74
2023/12/05 00:35:40;;;;;;;26.80;17.88;;;;;;;;;;5011718;28;20089;-74
2023/12/05 00:38:07;;;;;;;26.58;18.90;;;;;;;;;;4997377;28;20137;-74
2023/12/05 00:40:33;;;;;;;29.50;19.70;;;;;;;;;;5012679;28;20533;-74
2023/12/05 00:42:59;;;;;;;25.95;18.25;;;;;;;;;;5010823;28;20050;-75
2023/12/05 00:45:25;;;;;;;26.48;18.92;;;;;;;;;;4998901;28;20128;-75
2023/12/05 00:47:51;;;;;;;29.33;20.13;;;;;;;;;;5013546;28;20133;-75
2023/12/05 00:50:18;;;;;;;30.27;21.15;;;;;;;;;;4996390;28;20389;-75
2023/12/05 00:52:44;;;;;;;30.63;21.75;;;;;;;;;;5002445;28;20049;-75
2023/12/05 00:55:10;;;;;;;33.88;22.77;;;;;;;;;;5008909;28;20057;-75
2023/12/05 00:57:36;;;;;;;31.85;21.90;;;;;;;;;;5007682;28;20376;-75
2023/12/05 01:00:04;;;;;;;31.42;22.00;;;;;;;;;;5015135;28;20407;-75
2023/12/05 01:02:30;;;;;;;31.58;21.63;;;;;;;;;;4998692;28;20050;-75
2023/12/05 01:04:56;;;;;;;36.40;23.17;;;;;;;;;;5013399;28;20492;-75
2023/12/05 01:07:22;;;;;;;34.58;23.20;;;;;;;;;;5015355;28;20096;-75
2023/12/05 01:09:48;;;;;;;31.67;20.48;;;;;;;;;;5010506;28;20096;-75
2023/12/05 01:12:14;;;;;;;34.45;23.17;;;;;;;;;;5014661;28;20048;-75
2023/12/05 01:14:40;;;;;;;31.83;22.80;;;;;;;;;;5010253;28;20081;-75
2023/12/05 01:17:07;;;;;;;32.10;22.15;;;;;;;;;;4995866;28;20061;-75
2023/12/05 01:19:35;;;;;;;35.38;23.80;;;;;;;;;;5006540;28;20046;-75
2023/12/05 01:22:02;;;;;;;34.40;24.35;;;;;;;;;;5000666;28;20092;-75
2023/12/05 01:24:29;;;;;;;35.95;24.73;;;;;;;;;;4997155;28;20568;-75
2023/12/05 01:26:55;;;;;;;33.33;22.42;;;;;;;;;;5007556;28;20046;-75
2023/12/05 01:29:21;;;;;;;34.67;24.10;;;;;;;;;;5004456;28;20051;-75
2023/12/05 01:31:47;;;;;;;35.50;23.65;;;;;;;;;;4995664;28;20577;-75
2023/12/05 01:34:13;;;;;;;36.53;24.30;;;;;;;;;;4998417;28;20562;-75
2023/12/05 01:36:39;;;;;;;38.28;26.23;;;;;;;;;;5014775;28;20041;-75
2023/12/05 01:39:05;;;;;;;38.63;25.42;;;;;;;;;;5014088;28;20104;-75
2023/12/05 01:41:31;;;;;;;37.65;23.38;;;;;;;;;;5013556;28;20499;-75
2023/12/05 01:43:57;;;;;;;38.38;25.27;;;;;;;;;;5014260;28;20172;-75
2023/12/05 01:46:24;;;;;;;37.33;23.73;;;;;;;;;;5014433;28;20073;-75
2023/12/05 01:48:50;;;;;;;42.38;26.88;;;;;;;;;;5010146;28;20472;-75
2023/12/05 01:51:17;;;;;;;40.17;26.80;;;;;;;;;;5004565;28;20042;-75
2023/12/05 01:53:43;;;;;;;37.45;24.92;;;;;;;;;;5005369;28;20037;-75
2023/12/05 01:56:10;;;;;;;41.78;26.30;;;;;;;;;;5011930;28;20049;-75
2023/12/05 01:58:37;;;;;;;38.80;24.63;;;;;;;;;;5013344;28;20096;-75
2023/12/05 02:01:04;;;;;;;39.60;24.92;;;;;;;;;;5006096;28;20046;-75
2023/12/05 02:03:31;;;;;;;39.67;25.92;;;;;;;;;;4996142;28;21390;-75
2023/12/05 02:05:57;;;;;;;34.90;23.23;;;;;;;;;;5013927;28;20046;-75
2023/12/05 02:08:25;;;;;;;34.38;24.10;;;;;;;;;;5006312;28;20038;-74
2023/12/05 02:10:51;;;;;;;39.35;26.80;;;;;;;;;;4996100;28;20046;-75
2023/12/05 02:13:17;;;;;;;36.13;25.75;;;;;;;;;;5008113;28;20042;-75
2023/12/05 02:15:43;;;;;;;36.22;25.45;;;;;;;;;;4996737;28;20086;-75
2023/12/05 02:18:18;;;;;;;34.22;23.90;;;;;;;;;;5013913;28;20046;-75
2023/12/05 02:20:57;;;;;;;36.55;25.85;;;;;;;;;;5010395;28;20472;-75
2023/12/05 02:23:42;;;;;;;35.58;25.83;;;;;;;;;;4993219;28;20471;-75
2023/12/05 02:26:20;;;;;;;34.58;23.83;;;;;;;;;;5004511;28;20464;-75
2023/12/05 02:28:47;;;;;;;31.77;22.95;;;;;;;;;;5006465;28;20046;-75
2023/12/05 02:31:13;;;;;;;33.33;24.75;;;;;;;;;;5011775;28;20061;-75
2023/12/05 02:33:39;;;;;;;32.83;23.33;;;;;;;;;;5013420;28;20092;-75
2023/12/05 02:36:19;;;;;;;33.80;23.48;;;;;;;;;;5008039;28;20057;-75
2023/12/05 02:38:49;;;;;;;31.70;23.50;;;;;;;;;;4997808;28;20054;-75
2023/12/05 02:41:24;;;;;;;34.45;25.63;;;;;;;;;;5007172;28;20105;-75
2023/12/05 02:43:54;;;;;;;34.78;24.52;;;;;;;;;;5001618;28;20041;-75
2023/12/05 02:46:20;;;;;;;32.33;23.73;;;;;;;;;;5016569;28;20033;-75
2023/12/05 02:48:47;;;;;;;34.45;25.77;;;;;;;;;;5015510;28;20077;-74
2023/12/05 02:51:13;;;;;;;34.00;23.83;;;;;;;;;;5005423;28;20054;-75
2023/12/05 02:53:39;;;;;;;30.33;22.95;;;;;;;;;;5008901;28;20069;-75
2023/12/05 02:56:06;;;;;;;35.92;24.50;;;;;;;;;;5003034;28;20341;-75
2023/12/05 02:58:32;;;;;;;33.53;24.90;;;;;;;;;;5002665;28;20045;-75
2023/12/05 03:00:58;;;;;;;36.13;25.38;;;;;;;;;;5010218;28;20807;-75
2023/12/05 03:03:24;;;;;;;34.17;24.75;;;;;;;;;;5007689;28;20046;-75
2023/12/05 03:05:50;;;;;;;35.35;24.98;;;;;;;;;;4985100;28;20145;-75
2023/12/05 03:08:16;;;;;;;37.20;24.90;;;;;;;;;;5005846;28;20046;-75
2023/12/05 03:10:42;;;;;;;34.25;24.45;;;;;;;;;;5008801;28;20431;-75
2023/12/05 03:13:08;;;;;;;34.88;25.63;;;;;;;;;;5012876;28;20419;-75
2023/12/05 03:15:34;;;;;;;37.95;27.05;;;;;;;;;;5006498;28;20473;-75
2023/12/05 03:18:00;;;;;;;36.08;26.30;;;;;;;;;;5010805;28;20396;-75
2023/12/05 03:20:26;;;;;;;29.10;20.83;;;;;;;;;;5010177;28;20042;-75
2023/12/05 03:22:52;;;;;;;37.70;27.55;;;;;;;;;;5012447;28;20057;-75
2023/12/05 03:25:18;;;;;;;39.15;27.67;;;;;;;;;;5012100;28;20065;-75
2023/12/05 03:27:44;;;;;;;36.05;25.10;;;;;;;;;;5002587;28;20068;-75
2023/12/05 03:30:10;;;;;;;37.13;25.95;;;;;;;;;;5002278;28;20515;-74
2023/12/05 03:32:36;;;;;;;38.47;27.27;;;;;;;;;;5011940;28;20108;-75
2023/12/05 03:35:03;;;;;;;36.30;26.27;;;;;;;;;;5005945;28;20050;-75
2023/12/05 03:37:29;;;;;;;36.60;26.13;;;;;;;;;;5000275;28;20407;-75
2023/12/05 03:39:55;;;;;;;37.95;27.55;;;;;;;;;;4997254;28;20045;-75
2023/12/05 03:42:21;;;;;;;37.95;25.50;;;;;;;;;;5010069;28;20133;-75
2023/12/05 03:44:47;;;;;;;34.92;25.20;;;;;;;;;;5003425;28;20038;-75
2023/12/05 03:47:13;;;;;;;39.78;27.63;;;;;;;;;;4997449;28;20051;-75
2023/12/05 03:49:39;;;;;;;37.05;27.13;;;;;;;;;;5008234;28;20525;-75
2023/12/05 03:52:05;;;;;;;40.67;27.63;;;;;;;;;;5004682;28;20510;-75
2023/12/05 03:54:31;;;;;;;36.95;27.35;;;;;;;;;;5000372;28;20046;-75
2023/12/05 03:56:57;;;;;;;37.63;27.58;;;;;;;;;;5001102;28;20050;-75
2023/12/05 03:59:23;;;;;;;42.70;28.65;;;;;;;;;;4999951;28;20049;-74
2023/12/05 04:01:49;;;;;;;40.10;27.52;;;;;;;;;;5009681;28;20049;-75
2023/12/05 04:04:15;;;;;;;37.35;26.58;;;;;;;;;;5014918;28;20050;-75
2023/12/05 04:06:41;;;;;;;38.17;28.63;;;;;;;;;;5011517;28;20377;-75
2023/12/05 04:09:08;;;;;;;39.67;27.20;;;;;;;;;;5009193;28;20407;-75
2023/12/05 04:11:34;;;;;;;39.22;27.63;;;;;;;;;;5004385;28;20057;-75
2023/12/05 04:14:01;;;;;;;38.40;27.67;;;;;;;;;;5012072;28;20446;-75
2023/12/05 04:16:27;;;;;;;36.25;25.58;;;;;;;;;;5011338;28;20091;-75
2023/12/05 04:18:53;;;;;;;31.48;22.42;;;;;;;;;;5013903;28;20103;-75
2023/12/05 04:21:19;;;;;;;42.65;30.90;;;;;;;;;;4997451;28;20057;-75
2023/12/05 04:23:46;;;;;;;39.63;28.67;;;;;;;;;;4996879;28;20043;-75
2023/12/05 04:26:19;;;;;;;40.53;27.83;;;;;;;;;;5012412;28;20498;-75
2023/12/05 04:28:45;;;;;;;37.95;27.33;;;;;;;;;;5007276;28;20103;-75
2023/12/05 04:31:14;;;;;;;42.85;29.65;;;;;;;;;;5015683;28;20045;-75
2023/12/05 04:33:40;;;;;;;37.42;27.48;;;;;;;;;;5011081;28;20045;-75
2023/12/05 04:36:07;;;;;;;36.80;26.27;;;;;;;;;;5015146;28;20048;-75
2023/12/05 04:38:36;;;;;;;42.10;29.10;;;;;;;;;;5014533;28;20042;-75
2023/12/05 04:41:02;;;;;;;44.40;30.77;;;;;;;;;;5015392;28;20089;-74
2023/12/05 04:43:30;;;;;;;38.58;28.02;;;;;;;;;;5013057;28;20463;-74
2023/12/05 04:45:56;;;;;;;42.63;27.80;;;;;;;;;;5010903;28;20077;-75
2023/12/05 04:48:22;;;;;;;42.55;28.90;;;;;;;;;;5007810;28;20046;-75
2023/12/05 04:50:48;;;;;;;44.38;30.00;;;;;;;;;;5013765;28;20096;-75
2023/12/05 04:53:15;;;;;;;40.05;27.55;;;;;;;;;;5011994;28;20046;-75
2023/12/05 04:55:41;;;;;;;44.53;29.55;;;;;;;;;;5013896;28;20068;-75
2023/12/05 04:58:07;;;;;;;41.70;27.95;;;;;;;;;;5005834;28;20042;-74
2023/12/05 05:00:33;;;;;;;38.15;27.25;;;;;;;;;;5013756;28;20048;-75
2023/12/05 05:02:59;;;;;;;45.15;30.13;;;;;;;;;;5000065;28;20046;-74
2023/12/05 05:05:25;;;;;;;40.65;29.00;;;;;;;;;;5004112;28;20042;-74
2023/12/05 05:07:51;;;;;;;51.97;33.53;;;;;;;;;;5012785;28;20499;-74
2023/12/05 05:10:17;;;;;;;50.92;32.92;;;;;;;;;;5010955;28;20041;-74
2023/12/05 05:12:43;;;;;;;42.95;29.25;;;;;;;;;;5012540;28;20045;-74
2023/12/05 05:15:09;;;;;;;47.83;32.63;;;;;;;;;;5008866;28;20088;-74
2023/12/05 05:17:35;;;;;;;44.97;30.05;;;;;;;;;;5009613;28;20084;-74
2023/12/05 05:20:01;;;;;;;48.97;33.33;;;;;;;;;;5008281;28;20113;-74
2023/12/05 05:22:27;;;;;;;45.60;31.83;;;;;;;;;;5008359;28;20045;-74
2023/12/05 05:24:53;;;;;;;41.83;28.77;;;;;;;;;;5012240;28;20089;-74
2023/12/05 05:27:20;;;;;;;43.30;29.35;;;;;;;;;;5001645;28;20455;-74
2023/12/05 05:29:46;;;;;;;46.00;30.10;;;;;;;;;;5003759;28;20385;-74
2023/12/05 05:32:12;;;;;;;47.60;30.17;;;;;;;;;;5008379;28;20050;-74
2023/12/05 05:34:38;;;;;;;44.42;29.90;;;;;;;;;;5013366;28;20144;-74
2023/12/05 05:37:04;;;;;;;44.60;30.33;;;;;;;;;;5003252;28;20038;-74
2023/12/05 05:39:30;;;;;;;47.53;32.33;;;;;;;;;;5010332;28;20050;-74
2023/12/05 05:41:56;;;;;;;47.20;31.13;;;;;;;;;;5007706;28;20145;-74
2023/12/05 05:44:22;;;;;;;44.85;30.40;;;;;;;;;;5011744;28;20041;-74
2023/12/05 05:46:48;;;;;;;41.60;28.35;;;;;;;;;;5008614;28;20055;-74
2023/12/05 05:49:14;;;;;;;45.22;29.90;;;;;;;;;;5012464;28;20046;-74
2023/12/05 05:51:40;;;;;;;49.47;32.05;;;;;;;;;;5012602;28;20102;-74
2023/12/05 05:54:06;;;;;;;44.58;29.30;;;;;;;;;;5005294;28;20042;-74
2023/12/05 05:56:38;;;;;;;42.28;29.33;;;;;;;;;;5003023;28;20050;-74
2023/12/05 05:59:04;;;;;;;43.28;27.73;;;;;;;;;;5014172;28;20041;-74
2023/12/05 06:01:30;;;;;;;40.65;27.63;;;;;;;;;;5012666;28;20061;-74
2023/12/05 06:03:56;;;;;;;41.13;29.08;;;;;;;;;;5012417;28;20042;-74
2023/12/05 06:06:22;;;;;;;41.47;27.63;;;;;;;;;;5009046;28;20046;-74
2023/12/05 06:08:48;;;;;;;42.00;28.35;;;;;;;;;;5006562;28;20049;-75
2023/12/05 06:11:14;;;;;;;39.85;26.15;;;;;;;;;;5013808;28;20389;-74
2023/12/05 06:13:40;;;;;;;47.15;30.90;;;;;;;;;;5007199;28;20046;-74
2023/12/05 06:16:07;;;;;;;44.03;30.00;;;;;;;;;;5013035;28;20049;-74
2023/12/05 06:18:34;;;;;;;43.60;28.90;;;;;;;;;;5012663;28;20057;-74
2023/12/05 06:21:00;;;;;;;38.78;26.92;;;;;;;;;;5010048;28;20071;-74
2023/12/05 06:23:26;;;;;;;42.15;28.33;;;;;;;;;;4994631;28;20137;-74
2023/12/05 06:25:52;;;;;;;40.38;28.67;;;;;;;;;;4999433;28;20446;-74
2023/12/05 06:28:18;;;;;;;44.58;30.67;;;;;;;;;;5011741;28;20042;-74
2023/12/05 06:30:45;;;;;;;41.28;29.20;;;;;;;;;;5006290;28;20050;-74
2023/12/05 06:33:11;;;;;;;45.45;30.15;;;;;;;;;;4992633;28;20518;-74
2023/12/05 06:35:37;;;;;;;42.53;26.67;;;;;;;;;;5009105;28;20061;-74
2023/12/05 06:38:03;;;;;;;45.28;30.52;;;;;;;;;;5006712;28;20107;-74
2023/12/05 06:40:30;;;;;;;46.30;31.05;;;;;;;;;;5007829;28;20046;-74
2023/12/05 06:42:56;;;;;;;41.83;27.80;;;;;;;;;;5012538;28;20056;-74
2023/12/05 06:45:22;;;;;;;45.25;30.55;;;;;;;;;;5004621;28;20096;-74
2023/12/05 06:47:49;;;;;;;46.05;30.77;;;;;;;;;;5003836;28;20419;-74
2023/12/05 06:50:15;;;;;;;45.72;30.10;;;;;;;;;;5008437;28;20129;-74
2023/12/05 06:52:41;;;;;;;34.63;22.08;;;;;;;;;;4996912;28;20426;-74
2023/12/05 06:55:08;;;;;;;44.33;29.10;;;;;;;;;;4999158;28;20500;-74
2023/12/05 06:57:34;;;;;;;46.92;31.13;;;;;;;;;;5011508;28;20057;-74
2023/12/05 07:00:02;;;;;;;46.88;30.48;;;;;;;;;;5006405;28;20046;-74
2023/12/05 07:02:28;;;;;;;48.25;30.95;;;;;;;;;;5013062;28;20049;-74
2023/12/05 07:04:57;;;;;;;49.95;32.60;;;;;;;;;;5010629;28;20046;-74
2023/12/05 07:07:24;;;;;;;45.55;31.23;;;;;;;;;;5011999;28;20042;-74
2023/12/05 07:09:50;;;;;;;48.80;31.73;;;;;;;;;;5005961;28;20427;-74
2023/12/05 07:12:16;;;;;;;49.13;31.52;;;;;;;;;;5006939;28;20046;-74
2023/12/05 07:14:42;;;;;;;48.25;29.20;;;;;;;;;;5001908;28;20054;-73
2023/12/05 07:17:08;;;;;;;48.67;31.40;;;;;;;;;;5009836;28;20069;-73
2023/12/05 07:19:34;;;;;;;52.10;34.78;;;;;;;;;;5000293;28;20038;-74
2023/12/05 07:22:00;;;;;;;45.63;30.08;;;;;;;;;;5006745;28;20053;-74
2023/12/05 07:24:26;;;;;;;50.03;30.75;;;;;;;;;;4993851;28;20046;-74
2023/12/05 07:26:52;;;;;;;46.88;30.15;;;;;;;;;;4993897;28;20125;-74
2023/12/05 07:29:18;;;;;;;47.42;30.05;;;;;;;;;;4994084;28;20241;-73
2023/12/05 07:31:44;;;;;;;44.80;28.67;;;;;;;;;;4993693;28;20062;-74
2023/12/05 07:34:10;;;;;;;44.00;29.35;;;;;;;;;;5007767;28;20053;-74
2023/12/05 07:36:40;;;;;;;47.45;28.83;;;;;;;;;;5012434;28;20042;-74
2023/12/05 07:39:06;;;;;;;47.50;29.90;;;;;;;;;;5012545;28;20077;-74
2023/12/05 07:41:33;;;;;;;49.25;30.55;;;;;;;;;;5013333;28;20046;-75
2023/12/05 07:43:59;;;;;;;46.55;30.17;;;;;;;;;;5011032;28;20042;-74
2023/12/05 07:46:25;;;;;;;47.45;30.67;;;;;;;;;;5004616;28;20038;-74
2023/12/05 07:48:51;;;;;;;48.45;30.85;;;;;;;;;;5012871;28;20566;-73
2023/12/05 07:51:17;;;;;;;51.00;31.15;;;;;;;;;;5009942;28;20038;-72
2023/12/05 07:53:44;;;;;;;47.13;31.20;;;;;;;;;;5009385;28;20042;-74
2023/12/05 07:56:11;;;;;;;46.90;30.27;;;;;;;;;;5005536;28;20447;-74
2023/12/05 07:58:37;;;;;;;45.65;28.88;;;;;;;;;;4993394;28;20054;-74
2023/12/05 08:01:03;;;;;;;48.05;32.10;;;;;;;;;;4996063;28;20100;-74
2023/12/05 08:03:30;;;;;;;46.95;30.45;;;;;;;;;;5001829;28;20050;-74
2023/12/05 08:05:56;;;;;;;47.00;31.63;;;;;;;;;;5003485;28;20085;-74
2023/12/05 08:08:23;;;;;;;41.80;26.52;;;;;;;;;;5003112;28;20053;-74
2023/12/05 08:10:49;;;;;;;48.45;32.22;;;;;;;;;;4993808;28;20161;-74
2023/12/05 08:13:15;;;;;;;48.40;29.98;;;;;;;;;;5004056;28;20057;-74
2023/12/05 08:15:41;;;;;;;43.03;26.90;;;;;;;;;;5011193;28;20104;-74
2023/12/05 08:18:08;;;;;;;49.17;31.77;;;;;;;;;;5011581;28;20054;-74
2023/12/05 08:20:34;;;;;;;48.17;30.50;;;;;;;;;;5011561;28;20064;-74
2023/12/05 08:23:00;;;;;;;43.78;28.98;;;;;;;;;;5010956;28;20041;-74
2023/12/05 08:25:26;;;;;;;43.53;27.70;;;;;;;;;;5011307;28;20108;-74
2023/12/05 08:27:52;;;;;;;45.78;29.70;;;;;;;;;;5011608;28;20056;-74
2023/12/05 08:30:18;;;;;;;46.65;30.85;;;;;;;;;;5010181;28;20050;-74
2023/12/05 08:32:44;;;;;;;46.33;30.73;;;;;;;;;;5010583;28;20086;-74
2023/12/05 08:35:10;;;;;;;42.90;27.13;;;;;;;;;;5010930;28;20061;-74
2023/12/05 08:37:36;;;;;;;51.40;33.17;;;;;;;;;;5010442;28;20046;-74
2023/12/05 08:40:02;;;;;;;47.28;30.05;;;;;;;;;;5010024;28;20057;-74
2023/12/05 08:42:28;;;;;;;54.85;32.10;;;;;;;;;;5009558;28;20108;-74
2023/12/05 08:44:54;;;;;;;51.72;32.95;;;;;;;;;;5012016;28;20054;-74
2023/12/05 08:47:21;;;;;;;47.30;30.10;;;;;;;;;;5013556;28;20050;-74
2023/12/05 08:49:47;;;;;;;50.28;32.58;;;;;;;;;;5016168;28;20064;-74
2023/12/05 08:52:14;;;;;;;39.45;25.83;;;;;;;;;;5009707;28;20061;-74
2023/12/05 08:54:40;;;;;;;43.05;28.50;;;;;;;;;;5009832;28;20732;-74
2023/12/05 08:57:06;;;;;;;40.80;27.50;;;;;;;;;;5014568;28;20085;-74
2023/12/05 08:59:32;;;;;;;41.10;29.27;;;;;;;;;;5014475;28;20118;-74
2023/12/05 09:01:58;;;;;;;39.92;27.27;;;;;;;;;;5015434;28;20057;-74
2023/12/05 09:04:24;;;;;;;40.97;28.65;;;;;;;;;;5013439;28;20413;-74
2023/12/05 09:06:50;;;;;;;43.35;29.67;;;;;;;;;;5013084;28;20101;-73
2023/12/05 09:09:16;;;;;;;42.15;30.15;;;;;;;;;;5010120;28;20173;-74
2023/12/05 09:11:44;;;;;;;41.60;27.92;;;;;;;;;;5014866;28;20057;-73
2023/12/05 09:14:10;;;;;;;37.15;26.60;;;;;;;;;;5015049;28;20050;-73
2023/12/05 09:16:37;;;;;;;38.40;26.38;;;;;;;;;;5013952;28;20037;-73
2023/12/05 09:19:03;;;;;;;38.75;26.70;;;;;;;;;;5007098;28;20058;-73
2023/12/05 09:21:29;;;;;;;35.72;26.10;;;;;;;;;;5012378;28;20049;-73
2023/12/05 09:23:56;;;;;;;39.75;29.40;;;;;;;;;;5011662;28;20189;-73
2023/12/05 09:26:22;;;;;;;36.67;26.73;;;;;;;;;;4995898;28;20042;-74
2023/12/05 09:28:48;;;;;;;36.90;27.50;;;;;;;;;;5010522;28;20046;-73
2023/12/05 09:31:14;;;;;;;33.65;24.40;;;;;;;;;;5004930;28;20069;-74
2023/12/05 09:33:40;;;;;;;36.03;23.38;;;;;;;;;;5012065;28;20049;-75
2023/12/05 09:36:06;;;;;;;34.13;25.48;;;;;;;;;;5001376;28;20047;-74
2023/12/05 09:38:32;;;;;;;35.17;24.13;;;;;;;;;;4996206;28;20053;-74
2023/12/05 09:40:59;;;;;;;36.63;26.88;;;;;;;;;;4996875;28;20053;-73
2023/12/05 09:43:26;;;;;;;38.35;26.50;;;;;;;;;;5013760;28;20082;-73
2023/12/05 09:45:58;;;;;;;33.97;24.73;;;;;;;;;;4994655;28;20125;-74
2023/12/05 09:48:26;;;;;;;33.97;25.55;;;;;;;;;;4994382;28;20046;-73
2023/12/05 09:50:52;;;;;;;36.10;26.92;;;;;;;;;;5011492;28;20064;-73
2023/12/05 09:53:18;;;;;;;42.25;29.77;;;;;;;;;;5002745;28;20042;-74
2023/12/05 09:55:44;;;;;;;40.78;28.13;;;;;;;;;;4999285;28;20049;-74
2023/12/05 09:58:12;;;;;;;38.70;28.50;;;;;;;;;;4996787;28;20038;-73
2023/12/05 10:00:38;;;;;;;38.70;28.27;;;;;;;;;;5008994;28;20049;-74
2023/12/05 10:03:08;;;;;;;33.85;24.42;;;;;;;;;;5012981;28;20042;-74
2023/12/05 10:05:35;;;;;;;36.05;28.30;;;;;;;;;;5012872;28;20049;-75
2023/12/05 10:08:02;;;;;;;35.53;25.40;;;;;;;;;;5012028;28;20053;-74
2023/12/05 10:10:30;;;;;;;34.38;26.10;;;;;;;;;;5013887;28;20057;-74
2023/12/05 10:12:56;;;;;;;34.42;26.88;;;;;;;;;;5013777;28;20050;-75
2023/12/05 10:15:23;;;;;;;32.70;23.33;;;;;;;;;;5013891;28;20096;-73
2023/12/05 10:17:49;;;;;;;33.03;23.10;;;;;;;;;;5005584;28;20055;-73
2023/12/05 10:20:15;;;;;;;33.50;24.13;;;;;;;;;;5000717;28;20047;-74
2023/12/05 10:22:41;;;;;;;34.45;25.60;;;;;;;;;;4993968;28;20054;-73
2023/12/05 10:25:08;;;;;;;34.05;26.50;;;;;;;;;;4996934;28;20116;-73
2023/12/05 10:27:34;;;;;;;37.30;26.83;;;;;;;;;;5013706;28;20042;-75
2023/12/05 10:30:00;;;;;;;33.85;25.33;;;;;;;;;;5010437;28;20084;-73
2023/12/05 10:32:27;;;;;;;36.80;24.90;;;;;;;;;;5006314;28;20510;-73
2023/12/05 10:34:54;;;;;;;34.17;24.35;;;;;;;;;;5005501;28;20109;-73
2023/12/05 10:37:28;;;;;;;31.10;22.77;;;;;;;;;;5008663;28;20124;-72
2023/12/05 10:39:55;;;;;;;35.90;24.75;;;;;;;;;;5008522;28;20057;-72
2023/12/05 10:42:26;;;;;;;34.55;24.52;;;;;;;;;;5006252;28;20140;-72
2023/12/05 10:44:52;;;;;;;34.30;23.70;;;;;;;;;;4995132;28;20061;-73
2023/12/05 10:47:18;;;;;;;34.28;24.35;;;;;;;;;;5008316;28;20042;-73
2023/12/05 10:49:44;;;;;;;38.05;26.75;;;;;;;;;;5004423;28;20042;-72
2023/12/05 10:52:13;;;;;;;34.40;23.23;;;;;;;;;;5010167;28;20050;-73
2023/12/05 10:54:40;;;;;;;35.47;26.95;;;;;;;;;;5008930;28;20379;-72
2023/12/05 10:57:09;;;;;;;34.50;23.27;;;;;;;;;;5005142;28;20132;-73
2023/12/05 10:59:35;;;;;;;36.45;25.90;;;;;;;;;;5012223;28;20103;-73
2023/12/05 11:02:03;;;;;;;33.83;23.75;;;;;;;;;;5008474;28;20559;-73
2023/12/05 11:04:29;;;;;;;35.47;25.08;;;;;;;;;;5011636;28;20137;-73
2023/12/05 11:06:55;;;;;;;34.03;23.90;;;;;;;;;;5012758;28;20456;-73
2023/12/05 11:09:23;;;;;;;27.67;19.25;;;;;;;;;;5011175;28;20056;-73
2023/12/05 11:11:51;;;;;;;37.22;26.15;;;;;;;;;;5007126;28;20120;-73
2023/12/05 11:14:19;;;;;;;34.22;25.23;;;;;;;;;;4995261;28;20046;-73
2023/12/05 11:16:49;;;;;;;36.45;25.08;;;;;;;;;;4993107;28;20058;-73
2023/12/05 11:19:27;;;;;;;36.22;25.20;;;;;;;;;;4997221;28;20121;-73
2023/12/05 11:21:56;;;;;;;36.10;23.67;;;;;;;;;;5006314;28;20046;-73
2023/12/05 11:24:22;;;;;;;33.10;23.40;;;;;;;;;;5002809;28;20034;-73
2023/12/05 11:26:56;;;;;;;36.63;24.92;;;;;;;;;;5008573;28;20044;-72
2023/12/05 11:29:25;;;;;;;37.63;26.80;;;;;;;;;;5009505;28;20050;-73
2023/12/05 11:32:11;;;;;;;36.92;24.85;;;;;;;;;;5007041;28;20042;-73
2023/12/05 11:34:44;;;;;;;38.97;26.35;;;;;;;;;;5010177;28;20046;-73
2023/12/05 11:37:18;;;;;;;32.83;23.13;;;;;;;;;;5006532;28;20058;-73
2023/12/05 11:39:44;;;;;;;37.15;26.33;;;;;;;;;;5007919;28;20050;-73
2023/12/05 11:42:12;;;;;;;38.22;23.88;;;;;;;;;;5007111;28;20042;-73
2023/12/05 11:44:38;;;;;;;39.78;26.80;;;;;;;;;;5004235;28;20084;-72
2023/12/05 11:47:09;;;;;;;37.80;25.88;;;;;;;;;;5004776;28;20125;-73
2023/12/05 11:49:39;;;;;;;37.47;23.45;;;;;;;;;;4994521;28;20046;-73
2023/12/05 11:52:12;;;;;;;37.88;24.27;;;;;;;;;;5001685;28;20175;-73
2023/12/05 11:54:44;;;;;;;36.25;23.58;;;;;;;;;;5004362;28;20045;-73
2023/12/05 11:57:17;;;;;;;38.00;23.50;;;;;;;;;;5010979;28;20463;-73
2023/12/05 11:59:45;;;;;;;35.53;21.48;;;;;;;;;;5012238;28;20049;-73
2023/12/05 12:02:12;;;;;;;40.33;25.73;;;;;;;;;;5008187;28;20056;-73
2023/12/05 12:04:38;;;;;;;40.78;26.45;;;;;;;;;;5011162;28;20096;-73
2023/12/05 12:07:04;;;;;;;37.47;24.75;;;;;;;;;;5011968;28;20046;-73
2023/12/05 12:09:36;;;;;;;40.22;26.67;;;;;;;;;;5011582;28;20046;-73
2023/12/05 12:12:03;;;;;;;41.97;26.95;;;;;;;;;;5012392;28;20120;-73
2023/12/05 12:14:30;;;;;;;43.97;29.30;;;;;;;;;;5012245;28;20050;-73
2023/12/05 12:16:59;;;;;;;43.38;27.38;;;;;;;;;;5009373;28;20133;-73
2023/12/05 12:19:25;;;;;;;44.08;27.38;;;;;;;;;;5011468;28;20458;-73
2023/12/05 12:21:51;;;;;;;39.20;25.13;;;;;;;;;;5012380;28;20483;-73
2023/12/05 12:24:21;;;;;;;40.83;25.83;;;;;;;;;;5016318;28;20054;-74
2023/12/05 12:27:07;;;;;;;45.75;29.27;;;;;;;;;;5013421;28;20107;-74
2023/12/05 12:29:33;;;;;;;41.10;26.92;;;;;;;;;;5015187;28;20510;-74
2023/12/05 12:32:10;;;;;;;45.72;28.17;;;;;;;;;;5015614;28;20046;-74
2023/12/05 12:34:37;;;;;;;43.67;28.10;;;;;;;;;;5014515;28;20193;-74
2023/12/05 12:37:05;;;;;;;41.60;26.48;;;;;;;;;;5001311;28;20068;-74
2023/12/05 12:39:36;;;;;;;42.67;27.13;;;;;;;;;;5015452;28;20518;-74
2023/12/05 12:42:03;;;;;;;45.47;29.38;;;;;;;;;;5014534;28;20448;-74
2023/12/05 12:44:30;;;;;;;42.78;27.58;;;;;;;;;;5009549;28;20136;-73
2023/12/05 12:46:57;;;;;;;35.78;22.58;;;;;;;;;;4986849;28;20053;-73
2023/12/05 12:49:23;;;;;;;46.78;29.13;;;;;;;;;;5000412;28;20046;-74
2023/12/05 12:51:53;;;;;;;39.95;25.00;;;;;;;;;;5010785;28;20495;-74
2023/12/05 12:54:19;;;;;;;42.67;27.75;;;;;;;;;;5006203;28;20051;-74
2023/12/05 12:56:45;;;;;;;40.35;26.48;;;;;;;;;;5014722;28;20140;-74
2023/12/05 12:59:12;;;;;;;46.65;30.10;;;;;;;;;;4999766;28;20049;-73
2023/12/05 13:01:38;;;;;;;48.92;31.67;;;;;;;;;;5000876;28;20049;-74
2023/12/05 13:04:14;;;;;;;45.78;28.65;;;;;;;;;;5010945;28;20073;-74
2023/12/05 13:06:41;;;;;;;44.55;28.00;;;;;;;;;;5014796;28;20056;-74
2023/12/05 13:09:11;;;;;;;40.25;24.63;;;;;;;;;;5012155;28;20145;-74
2023/12/05 13:11:38;;;;;;;44.93;28.83;;;;;;;;;;5009155;28;20049;-74
2023/12/05 13:14:07;;;;;;;47.17;27.40;;;;;;;;;;5008473;28;20046;-74
2023/12/05 13:16:33;;;;;;;43.25;26.45;;;;;;;;;;5011817;28;20050;-74
2023/12/05 13:18:59;;;;;;;42.78;28.85;;;;;;;;;;5013248;28;20080;-74
2023/12/05 13:21:34;;;;;;;34.88;23.45;;;;;;;;;;4995237;28;20049;-74
2023/12/05 13:24:01;;;;;;;40.28;25.80;;;;;;;;;;5011081;28;20486;-73
2023/12/05 13:26:27;;;;;;;46.95;29.92;;;;;;;;;;5014391;28;20091;-74
2023/12/05 13:28:54;;;;;;;47.53;28.20;;;;;;;;;;5014170;28;20041;-74
2023/12/05 13:31:20;;;;;;;46.97;30.33;;;;;;;;;;5014149;28;20108;-73
2023/12/05 13:33:46;;;;;;;44.70;26.92;;;;;;;;;;5002361;28;20129;-74
2023/12/05 13:36:12;;;;;;;50.05;30.67;;;;;;;;;;5012476;28;20049;-74
2023/12/05 13:38:40;;;;;;;48.88;30.27;;;;;;;;;;5012415;28;20231;-74
2023/12/05 13:41:06;;;;;;;46.83;27.88;;;;;;;;;;5013238;28;20077;-74
2023/12/05 13:43:32;;;;;;;54.00;31.25;;;;;;;;;;5013180;28;20046;-74
2023/12/05 13:45:58;;;;;;;44.75;27.27;;;;;;;;;;5014232;28;20053;-74
2023/12/05 13:48:24;;;;;;;45.92;27.73;;;;;;;;;;5012984;28;20053;-74
2023/12/05 13:50:51;;;;;;;47.22;29.98;;;;;;;;;;5008901;28;20061;-74
2023/12/05 13:53:17;;;;;;;51.10;29.90;;;;;;;;;;5005063;28;20065;-74
2023/12/05 13:55:43;;;;;;;50.15;31.73;;;;;;;;;;5006617;28;20042;-74
2023/12/05 13:58:09;;;;;;;51.65;31.02;;;;;;;;;;4996247;28;20058;-74
2023/12/05 14:00:35;;;;;;;49.35;31.15;;;;;;;;;;5003266;28;20049;-74
2023/12/05 14:03:02;;;;;;;50.28;30.55;;;;;;;;;;5010693;28;20058;-74
2023/12/05 14:05:28;;;;;;;51.83;32.13;;;;;;;;;;5007973;28;20050;-73
2023/12/05 14:07:54;;;;;;;53.95;33.03;;;;;;;;;;5012106;28;20049;-74
2023/12/05 14:10:20;;;;;;;43.72;27.80;;;;;;;;;;4997488;28;20042;-74
2023/12/05 14:12:46;;;;;;;52.63;32.55;;;;;;;;;;5007902;28;20039;-74
2023/12/05 14:15:12;;;;;;;46.63;28.08;;;;;;;;;;5005895;28;20057;-74